Lilly, Illinois
Current Conditions -  °F | °C
As of 7:42 AM on Saturday 25 Oct 2014 (Local Time) from KBMI Reporting Station
Haze Haze  
Wind Chill: 52°   Ceiling: 100
Heat Index: 52°   Visibility: 0.75mi
Dew Point: 52°   Wind: 3mph
Humidity: 100%   Direction: 240°WSW
Pressure: 29.99"   Gusts: NA
Location:  40.5282°N, 89.3251°W
Report Text: KBMI 251242Z 24003KT 3/4SM R29/5000VP6000FT BR BKN001 OVC006 11/11 A2999 RMK AO2 BKN V SCT
Loading
Personal Weather Stations






























Interactive Weather Map New forecast layout! Learn more

10-Day Weather Forecast

Advertisements
Track Severe Weather on mobile